sensor_id;sensor_type;location;lat;lon;timestamp;P1;durP1;ratioP1;P2;durP2;ratioP2
1206;SDS011;593;53.184;8.216;2023-03-01T00:01:14;18.87;;;12.23;;
1206;SDS011;593;53.184;8.216;2023-03-01T00:03:50;22.48;;;13.02;;
1206;SDS011;593;53.184;8.216;2023-03-01T00:06:16;16.73;;;10.20;;
1206;SDS011;593;53.184;8.216;2023-03-01T00:08:42;19.57;;;12.53;;
1206;SDS011;593;53.184;8.216;2023-03-01T00:11:10;15.17;;;11.30;;
1206;SDS011;593;53.184;8.216;2023-03-01T00:13:43;24.60;;;12.20;;
1206;SDS011;593;53.184;8.216;2023-03-01T00:16:11;20.10;;;12.02;;
1206;SDS011;593;53.184;8.216;2023-03-01T00:18:39;17.30;;;11.48;;
1206;SDS011;593;53.184;8.216;2023-03-01T00:21:05;17.90;;;11.43;;
1206;SDS011;593;53.184;8.216;2023-03-01T00:23:30;17.50;;;11.43;;
1206;SDS011;593;53.184;8.216;2023-03-01T00:25:56;19.30;;;12.07;;
1206;SDS011;593;53.184;8.216;2023-03-01T00:28:22;15.90;;;10.77;;
1206;SDS011;593;53.184;8.216;2023-03-01T00:30:48;21.67;;;12.33;;
1206;SDS011;593;53.184;8.216;2023-03-01T00:33:13;16.23;;;10.07;;
1206;SDS011;593;53.184;8.216;2023-03-01T00:35:38;15.87;;;11.00;;
1206;SDS011;593;53.184;8.216;2023-03-01T00:38:04;19.77;;;12.73;;
1206;SDS011;593;53.184;8.216;2023-03-01T00:40:31;13.90;;;9.73;;
1206;SDS011;593;53.184;8.216;2023-03-01T00:42:58;17.60;;;10.88;;
1206;SDS011;593;53.184;8.216;2023-03-01T00:45:24;18.83;;;10.90;;
1206;SDS011;593;53.184;8.216;2023-03-01T00:47:50;15.38;;;10.88;;
1206;SDS011;593;53.184;8.216;2023-03-01T00:50:16;15.20;;;10.25;;
1206;SDS011;593;53.184;8.216;2023-03-01T00:52:42;13.57;;;11.60;;
1206;SDS011;593;53.184;8.216;2023-03-01T00:55:08;16.70;;;10.40;;
1206;SDS011;593;53.184;8.216;2023-03-01T00:57:34;17.30;;;9.73;;
1206;SDS011;593;53.184;8.216;2023-03-01T00:59:59;15.83;;;11.50;;
1206;SDS011;593;53.184;8.216;2023-03-01T01:02:25;18.50;;;11.90;;
1206;SDS011;593;53.184;8.216;2023-03-01T01:04:50;18.40;;;10.90;;
1206;SDS011;593;53.184;8.216;2023-03-01T01:07:16;18.00;;;11.03;;
1206;SDS011;593;53.184;8.216;2023-03-01T01:09:42;14.00;;;10.67;;
1206;SDS011;593;53.184;8.216;2023-03-01T01:12:07;15.40;;;9.93;;
1206;SDS011;593;53.184;8.216;2023-03-01T01:14:33;17.10;;;11.30;;
1206;SDS011;593;53.184;8.216;2023-03-01T01:16:58;17.70;;;10.00;;
1206;SDS011;593;53.184;8.216;2023-03-01T01:19:24;20.00;;;11.13;;
1206;SDS011;593;53.184;8.216;2023-03-01T01:21:50;18.08;;;9.77;;
1206;SDS011;593;53.184;8.216;2023-03-01T01:24:16;17.53;;;11.60;;
1206;SDS011;593;53.184;8.216;2023-03-01T01:26:42;17.10;;;12.10;;
1206;SDS011;593;53.184;8.216;2023-03-01T01:29:07;15.67;;;11.33;;
1206;SDS011;593;53.184;8.216;2023-03-01T01:31:33;17.80;;;12.20;;
1206;SDS011;593;53.184;8.216;2023-03-01T01:34:00;18.20;;;11.65;;
1206;SDS011;593;53.184;8.216;2023-03-01T01:36:26;17.30;;;11.60;;
1206;SDS011;593;53.184;8.216;2023-03-01T01:38:52;18.27;;;13.43;;
1206;SDS011;593;53.184;8.216;2023-03-01T01:41:18;13.87;;;11.10;;
1206;SDS011;593;53.184;8.216;2023-03-01T01:43:46;19.50;;;11.55;;
1206;SDS011;593;53.184;8.216;2023-03-01T01:48:59;20.73;;;11.93;;
1206;SDS011;593;53.184;8.216;2023-03-01T01:51:28;21.75;;;12.30;;
1206;SDS011;593;53.184;8.216;2023-03-01T01:54:03;17.63;;;11.15;;
1206;SDS011;593;53.184;8.216;2023-03-01T01:56:33;17.83;;;12.85;;
1206;SDS011;593;53.184;8.216;2023-03-01T01:58:59;17.43;;;12.40;;
1206;SDS011;593;53.184;8.216;2023-03-01T02:01:26;16.35;;;11.63;;
1206;SDS011;593;53.184;8.216;2023-03-01T02:03:52;16.07;;;11.57;;
1206;SDS011;593;53.184;8.216;2023-03-01T02:06:31;19.67;;;11.60;;
1206;SDS011;593;53.184;8.216;2023-03-01T02:09:03;17.77;;;11.35;;
1206;SDS011;593;53.184;8.216;2023-03-01T02:11:33;16.58;;;12.93;;
1206;SDS011;593;53.184;8.216;2023-03-01T02:13:58;17.63;;;12.20;;
1206;SDS011;593;53.184;8.216;2023-03-01T02:16:24;15.87;;;10.93;;
1206;SDS011;593;53.184;8.216;2023-03-01T02:18:51;21.88;;;12.70;;
1206;SDS011;593;53.184;8.216;2023-03-01T02:21:22;20.90;;;11.48;;
1206;SDS011;593;53.184;8.216;2023-03-01T02:24:05;23.45;;;12.98;;
1206;SDS011;593;53.184;8.216;2023-03-01T02:26:42;24.15;;;13.73;;
1206;SDS011;593;53.184;8.216;2023-03-01T02:29:13;23.27;;;12.55;;
1206;SDS011;593;53.184;8.216;2023-03-01T02:31:38;16.27;;;12.07;;
1206;SDS011;593;53.184;8.216;2023-03-01T02:34:08;19.40;;;12.07;;
1206;SDS011;593;53.184;8.216;2023-03-01T02:36:43;20.38;;;12.38;;
1206;SDS011;593;53.184;8.216;2023-03-01T02:39:11;17.42;;;11.23;;
1206;SDS011;593;53.184;8.216;2023-03-01T02:41:42;22.83;;;12.75;;
1206;SDS011;593;53.184;8.216;2023-03-01T02:44:11;20.88;;;12.43;;
1206;SDS011;593;53.184;8.216;2023-03-01T02:46:41;22.90;;;13.10;;
1206;SDS011;593;53.184;8.216;2023-03-01T02:49:24;21.65;;;12.68;;
1206;SDS011;593;53.184;8.216;2023-03-01T02:51:56;15.88;;;10.80;;
1206;SDS011;593;53.184;8.216;2023-03-01T02:54:28;20.10;;;12.00;;
1206;SDS011;593;53.184;8.216;2023-03-01T02:56:58;17.45;;;11.35;;
1206;SDS011;593;53.184;8.216;2023-03-01T02:59:26;17.30;;;11.25;;
1206;SDS011;593;53.184;8.216;2023-03-01T03:01:55;17.90;;;11.35;;
1206;SDS011;593;53.184;8.216;2023-03-01T03:04:21;14.93;;;10.60;;
1206;SDS011;593;53.184;8.216;2023-03-01T03:06:47;23.03;;;13.30;;
1206;SDS011;593;53.184;8.216;2023-03-01T03:09:14;18.67;;;12.07;;
1206;SDS011;593;53.184;8.216;2023-03-01T03:11:41;16.88;;;10.27;;
1206;SDS011;593;53.184;8.216;2023-03-01T03:14:08;20.27;;;11.15;;
1206;SDS011;593;53.184;8.216;2023-03-01T03:16:44;21.23;;;12.27;;
1206;SDS011;593;53.184;8.216;2023-03-01T03:19:11;18.40;;;12.02;;
1206;SDS011;593;53.184;8.216;2023-03-01T03:21:37;17.42;;;11.73;;
1206;SDS011;593;53.184;8.216;2023-03-01T03:24:03;18.23;;;10.97;;
1206;SDS011;593;53.184;8.216;2023-03-01T03:26:29;19.63;;;11.57;;
1206;SDS011;593;53.184;8.216;2023-03-01T03:28:54;16.43;;;11.23;;
1206;SDS011;593;53.184;8.216;2023-03-01T03:31:20;21.97;;;11.63;;
1206;SDS011;593;53.184;8.216;2023-03-01T03:33:45;17.13;;;12.57;;
1206;SDS011;593;53.184;8.216;2023-03-01T03:36:15;19.13;;;11.80;;
1206;SDS011;593;53.184;8.216;2023-03-01T03:38:44;17.80;;;11.52;;
1206;SDS011;593;53.184;8.216;2023-03-01T03:41:10;19.13;;;11.77;;
1206;SDS011;593;53.184;8.216;2023-03-01T03:43:37;19.40;;;12.00;;
1206;SDS011;593;53.184;8.216;2023-03-01T03:46:04;21.35;;;12.13;;
1206;SDS011;593;53.184;8.216;2023-03-01T03:48:31;14.57;;;11.90;;
1206;SDS011;593;53.184;8.216;2023-03-01T03:50:59;19.45;;;11.23;;
1206;SDS011;593;53.184;8.216;2023-03-01T03:53:25;16.60;;;12.70;;
1206;SDS011;593;53.184;8.216;2023-03-01T03:55:52;23.27;;;13.00;;
1206;SDS011;593;53.184;8.216;2023-03-01T03:58:19;23.30;;;12.70;;
1206;SDS011;593;53.184;8.216;2023-03-01T04:00:47;17.60;;;10.98;;
1206;SDS011;593;53.184;8.216;2023-03-01T04:03:16;20.15;;;12.30;;
1206;SDS011;593;53.184;8.216;2023-03-01T04:05:44;22.52;;;13.55;;
1206;SDS011;593;53.184;8.216;2023-03-01T04:08:10;20.38;;;12.52;;
1206;SDS011;593;53.184;8.216;2023-03-01T04:10:43;17.33;;;12.60;;
1206;SDS011;593;53.184;8.216;2023-03-01T04:13:11;18.27;;;11.18;;
1206;SDS011;593;53.184;8.216;2023-03-01T04:15:38;17.42;;;11.75;;
1206;SDS011;593;53.184;8.216;2023-03-01T04:18:04;19.93;;;12.70;;
1206;SDS011;593;53.184;8.216;2023-03-01T04:20:31;17.60;;;12.07;;
1206;SDS011;593;53.184;8.216;2023-03-01T04:25:41;18.73;;;13.05;;
1206;SDS011;593;53.184;8.216;2023-03-01T04:28:10;18.20;;;12.18;;
1206;SDS011;593;53.184;8.216;2023-03-01T04:30:36;17.87;;;11.90;;
1206;SDS011;593;53.184;8.216;2023-03-01T04:33:05;19.85;;;12.50;;
1206;SDS011;593;53.184;8.216;2023-03-01T04:35:31;17.80;;;12.32;;
1206;SDS011;593;53.184;8.216;2023-03-01T04:37:57;16.83;;;10.88;;
1206;SDS011;593;53.184;8.216;2023-03-01T04:40:23;16.27;;;11.93;;
1206;SDS011;593;53.184;8.216;2023-03-01T04:42:48;17.57;;;12.10;;
1206;SDS011;593;53.184;8.216;2023-03-01T04:45:14;18.70;;;12.13;;
1206;SDS011;593;53.184;8.216;2023-03-01T04:47:40;12.87;;;10.17;;
1206;SDS011;593;53.184;8.216;2023-03-01T04:50:07;14.80;;;11.13;;
1206;SDS011;593;53.184;8.216;2023-03-01T04:52:34;17.20;;;11.40;;
1206;SDS011;593;53.184;8.216;2023-03-01T04:54:59;18.33;;;11.10;;
1206;SDS011;593;53.184;8.216;2023-03-01T04:57:24;25.20;;;13.17;;
1206;SDS011;593;53.184;8.216;2023-03-01T04:59:50;19.77;;;10.83;;
1206;SDS011;593;53.184;8.216;2023-03-01T05:02:15;19.43;;;11.67;;
1206;SDS011;593;53.184;8.216;2023-03-01T05:04:40;13.17;;;9.47;;
1206;SDS011;593;53.184;8.216;2023-03-01T05:07:06;18.07;;;11.40;;
1206;SDS011;593;53.184;8.216;2023-03-01T05:09:31;18.97;;;11.97;;
1206;SDS011;593;53.184;8.216;2023-03-01T05:11:56;17.93;;;10.57;;
1206;SDS011;593;53.184;8.216;2023-03-01T05:14:22;21.63;;;12.00;;
1206;SDS011;593;53.184;8.216;2023-03-01T05:16:47;23.13;;;13.30;;
1206;SDS011;593;53.184;8.216;2023-03-01T05:19:13;18.77;;;11.40;;
1206;SDS011;593;53.184;8.216;2023-03-01T05:21:40;16.23;;;11.23;;
1206;SDS011;593;53.184;8.216;2023-03-01T05:24:25;21.85;;;11.27;;
1206;SDS011;593;53.184;8.216;2023-03-01T05:26:51;23.73;;;11.75;;
1206;SDS011;593;53.184;8.216;2023-03-01T05:29:18;16.77;;;12.03;;
1206;SDS011;593;53.184;8.216;2023-03-01T05:31:49;20.70;;;13.38;;
1206;SDS011;593;53.184;8.216;2023-03-01T05:34:23;22.05;;;12.98;;
1206;SDS011;593;53.184;8.216;2023-03-01T05:36:50;20.90;;;13.30;;
1206;SDS011;593;53.184;8.216;2023-03-01T05:39:18;19.95;;;12.30;;
1206;SDS011;593;53.184;8.216;2023-03-01T05:41:48;23.02;;;13.20;;
1206;SDS011;593;53.184;8.216;2023-03-01T05:44:13;18.92;;;13.23;;
1206;SDS011;593;53.184;8.216;2023-03-01T05:46:39;24.30;;;13.60;;
1206;SDS011;593;53.184;8.216;2023-03-01T05:49:04;24.17;;;13.57;;
1206;SDS011;593;53.184;8.216;2023-03-01T05:51:30;20.80;;;13.00;;
1206;SDS011;593;53.184;8.216;2023-03-01T05:53:55;20.73;;;12.80;;
1206;SDS011;593;53.184;8.216;2023-03-01T05:56:21;18.87;;;13.00;;
1206;SDS011;593;53.184;8.216;2023-03-01T05:58:47;20.48;;;12.25;;
1206;SDS011;593;53.184;8.216;2023-03-01T06:01:14;13.38;;;10.65;;
1206;SDS011;593;53.184;8.216;2023-03-01T06:03:39;24.97;;;11.83;;
1206;SDS011;593;53.184;8.216;2023-03-01T06:06:05;17.10;;;11.00;;
1206;SDS011;593;53.184;8.216;2023-03-01T06:08:30;19.87;;;12.37;;
1206;SDS011;593;53.184;8.216;2023-03-01T06:10:55;20.93;;;13.20;;
1206;SDS011;593;53.184;8.216;2023-03-01T06:13:21;20.30;;;12.00;;
1206;SDS011;593;53.184;8.216;2023-03-01T06:15:48;20.33;;;11.95;;
1206;SDS011;593;53.184;8.216;2023-03-01T06:18:13;19.50;;;11.90;;
1206;SDS011;593;53.184;8.216;2023-03-01T06:20:39;20.97;;;12.50;;
1206;SDS011;593;53.184;8.216;2023-03-01T06:23:04;20.93;;;11.30;;
1206;SDS011;593;53.184;8.216;2023-03-01T06:25:29;18.67;;;10.43;;
1206;SDS011;593;53.184;8.216;2023-03-01T06:27:55;19.30;;;12.53;;
1206;SDS011;593;53.184;8.216;2023-03-01T06:30:21;21.10;;;11.17;;
1206;SDS011;593;53.184;8.216;2023-03-01T06:32:49;16.73;;;10.82;;
1206;SDS011;593;53.184;8.216;2023-03-01T06:35:15;20.10;;;12.13;;
1206;SDS011;593;53.184;8.216;2023-03-01T06:37:42;20.95;;;12.85;;
1206;SDS011;593;53.184;8.216;2023-03-01T06:40:08;21.80;;;12.80;;
1206;SDS011;593;53.184;8.216;2023-03-01T06:42:36;19.55;;;12.40;;
1206;SDS011;593;53.184;8.216;2023-03-01T06:45:03;29.08;;;13.25;;
1206;SDS011;593;53.184;8.216;2023-03-01T06:47:30;22.25;;;14.63;;
1206;SDS011;593;53.184;8.216;2023-03-01T06:49:56;30.27;;;16.27;;
1206;SDS011;593;53.184;8.216;2023-03-01T06:52:21;24.27;;;15.37;;
1206;SDS011;593;53.184;8.216;2023-03-01T06:54:46;19.13;;;13.40;;
1206;SDS011;593;53.184;8.216;2023-03-01T06:57:12;28.50;;;13.93;;
1206;SDS011;593;53.184;8.216;2023-03-01T06:59:37;24.33;;;13.47;;
1206;SDS011;593;53.184;8.216;2023-03-01T07:02:02;24.73;;;14.67;;
1206;SDS011;593;53.184;8.216;2023-03-01T07:04:28;21.37;;;14.33;;
1206;SDS011;593;53.184;8.216;2023-03-01T07:06:56;24.77;;;15.63;;
1206;SDS011;593;53.184;8.216;2023-03-01T07:09:22;21.57;;;13.67;;
1206;SDS011;593;53.184;8.216;2023-03-01T07:11:48;20.77;;;13.02;;
1206;SDS011;593;53.184;8.216;2023-03-01T07:14:14;23.30;;;13.57;;
1206;SDS011;593;53.184;8.216;2023-03-01T07:16:39;18.87;;;13.47;;
1206;SDS011;593;53.184;8.216;2023-03-01T07:19:05;22.93;;;13.70;;
1206;SDS011;593;53.184;8.216;2023-03-01T07:21:30;17.73;;;12.30;;
1206;SDS011;593;53.184;8.216;2023-03-01T07:23:56;26.80;;;14.70;;
1206;SDS011;593;53.184;8.216;2023-03-01T07:26:21;19.37;;;13.47;;
1206;SDS011;593;53.184;8.216;2023-03-01T07:28:46;20.83;;;13.90;;
1206;SDS011;593;53.184;8.216;2023-03-01T07:31:12;24.60;;;13.97;;
1206;SDS011;593;53.184;8.216;2023-03-01T07:33:37;15.30;;;11.90;;
1206;SDS011;593;53.184;8.216;2023-03-01T07:36:03;20.93;;;11.40;;
1206;SDS011;593;53.184;8.216;2023-03-01T07:38:30;22.23;;;13.27;;
1206;SDS011;593;53.184;8.216;2023-03-01T07:40:59;21.73;;;14.93;;
1206;SDS011;593;53.184;8.216;2023-03-01T07:43:26;22.67;;;13.40;;
1206;SDS011;593;53.184;8.216;2023-03-01T07:45:52;19.40;;;12.55;;
1206;SDS011;593;53.184;8.216;2023-03-01T07:48:17;18.40;;;13.40;;
1206;SDS011;593;53.184;8.216;2023-03-01T07:50:43;24.40;;;14.33;;
1206;SDS011;593;53.184;8.216;2023-03-01T07:53:09;22.83;;;13.40;;
1206;SDS011;593;53.184;8.216;2023-03-01T07:55:35;17.83;;;12.40;;
1206;SDS011;593;53.184;8.216;2023-03-01T07:58:01;19.80;;;12.90;;
1206;SDS011;593;53.184;8.216;2023-03-01T08:00:26;21.17;;;13.97;;
1206;SDS011;593;53.184;8.216;2023-03-01T08:02:51;15.13;;;11.20;;
1206;SDS011;593;53.184;8.216;2023-03-01T08:05:17;13.83;;;11.30;;
1206;SDS011;593;53.184;8.216;2023-03-01T08:07:42;14.70;;;10.77;;
1206;SDS011;593;53.184;8.216;2023-03-01T08:10:07;18.90;;;12.80;;
1206;SDS011;593;53.184;8.216;2023-03-01T08:12:33;20.55;;;12.88;;
1206;SDS011;593;53.184;8.216;2023-03-01T08:14:59;22.40;;;13.87;;
1206;SDS011;593;53.184;8.216;2023-03-01T08:17:24;20.77;;;13.13;;
1206;SDS011;593;53.184;8.216;2023-03-01T08:19:49;18.60;;;12.20;;
1206;SDS011;593;53.184;8.216;2023-03-01T08:22:15;22.20;;;14.07;;
1206;SDS011;593;53.184;8.216;2023-03-01T08:24:40;18.70;;;12.60;;
1206;SDS011;593;53.184;8.216;2023-03-01T08:27:05;18.17;;;13.70;;
1206;SDS011;593;53.184;8.216;2023-03-01T08:29:31;22.63;;;13.30;;
1206;SDS011;593;53.184;8.216;2023-03-01T08:31:57;19.42;;;12.77;;
1206;SDS011;593;53.184;8.216;2023-03-01T08:34:23;20.80;;;12.93;;
1206;SDS011;593;53.184;8.216;2023-03-01T08:36:49;17.45;;;13.93;;
1206;SDS011;593;53.184;8.216;2023-03-01T08:39:17;21.52;;;14.52;;
1206;SDS011;593;53.184;8.216;2023-03-01T08:41:44;22.50;;;13.52;;
1206;SDS011;593;53.184;8.216;2023-03-01T08:44:10;20.30;;;14.40;;
1206;SDS011;593;53.184;8.216;2023-03-01T08:46:38;17.73;;;13.05;;
1206;SDS011;593;53.184;8.216;2023-03-01T08:49:12;17.35;;;12.55;;
1206;SDS011;593;53.184;8.216;2023-03-01T08:51:43;18.33;;;12.52;;
1206;SDS011;593;53.184;8.216;2023-03-01T08:54:10;19.88;;;13.25;;
1206;SDS011;593;53.184;8.216;2023-03-01T08:56:40;16.95;;;11.80;;
1206;SDS011;593;53.184;8.216;2023-03-01T08:59:05;16.53;;;12.83;;
1206;SDS011;593;53.184;8.216;2023-03-01T09:01:31;15.93;;;10.60;;
1206;SDS011;593;53.184;8.216;2023-03-01T09:03:56;13.73;;;9.53;;
1206;SDS011;593;53.184;8.216;2023-03-01T09:06:22;12.93;;;8.83;;
1206;SDS011;593;53.184;8.216;2023-03-01T09:08:48;12.17;;;9.10;;
1206;SDS011;593;53.184;8.216;2023-03-01T09:11:15;13.85;;;9.77;;
1206;SDS011;593;53.184;8.216;2023-03-01T09:13:43;11.45;;;8.43;;
1206;SDS011;593;53.184;8.216;2023-03-01T09:16:10;9.27;;;7.93;;
1206;SDS011;593;53.184;8.216;2023-03-01T09:18:36;12.25;;;8.45;;
1206;SDS011;593;53.184;8.216;2023-03-01T09:21:08;12.40;;;9.37;;
1206;SDS011;593;53.184;8.216;2023-03-01T09:23:39;12.15;;;9.60;;
1206;SDS011;593;53.184;8.216;2023-03-01T09:26:06;18.48;;;9.80;;
1206;SDS011;593;53.184;8.216;2023-03-01T09:28:33;13.63;;;9.90;;
1206;SDS011;593;53.184;8.216;2023-03-01T09:31:00;12.82;;;8.90;;
1206;SDS011;593;53.184;8.216;2023-03-01T09:33:27;14.52;;;8.68;;
1206;SDS011;593;53.184;8.216;2023-03-01T09:36:04;10.43;;;8.50;;
1206;SDS011;593;53.184;8.216;2023-03-01T09:38:32;11.15;;;8.10;;
1206;SDS011;593;53.184;8.216;2023-03-01T09:40:58;8.13;;;6.20;;
1206;SDS011;593;53.184;8.216;2023-03-01T09:45:58;8.98;;;7.05;;
1206;SDS011;593;53.184;8.216;2023-03-01T09:48:28;10.52;;;6.53;;
1206;SDS011;593;53.184;8.216;2023-03-01T09:50:58;9.88;;;7.28;;
1206;SDS011;593;53.184;8.216;2023-03-01T09:53:32;11.93;;;7.88;;
1206;SDS011;593;53.184;8.216;2023-03-01T09:56:20;9.98;;;8.55;;
1206;SDS011;593;53.184;8.216;2023-03-01T09:58:51;10.07;;;6.68;;
1206;SDS011;593;53.184;8.216;2023-03-01T10:01:35;7.95;;;7.15;;
1206;SDS011;593;53.184;8.216;2023-03-01T10:04:23;6.78;;;5.50;;
1206;SDS011;593;53.184;8.216;2023-03-01T10:06:58;8.77;;;5.60;;
1206;SDS011;593;53.184;8.216;2023-03-01T10:09:40;5.13;;;3.78;;
1206;SDS011;593;53.184;8.216;2023-03-01T10:12:09;4.20;;;2.97;;
1206;SDS011;593;53.184;8.216;2023-03-01T10:14:38;4.03;;;3.50;;
1206;SDS011;593;53.184;8.216;2023-03-01T10:17:12;3.03;;;2.42;;
1206;SDS011;593;53.184;8.216;2023-03-01T10:19:43;5.82;;;3.35;;
1206;SDS011;593;53.184;8.216;2023-03-01T10:22:13;4.13;;;3.65;;
1206;SDS011;593;53.184;8.216;2023-03-01T10:24:43;3.63;;;2.92;;
1206;SDS011;593;53.184;8.216;2023-03-01T10:32:57;5.07;;;4.68;;
1206;SDS011;593;53.184;8.216;2023-03-01T10:35:24;7.20;;;6.20;;
1206;SDS011;593;53.184;8.216;2023-03-01T10:40:23;7.78;;;5.72;;
1206;SDS011;593;53.184;8.216;2023-03-01T10:42:49;9.10;;;5.60;;
1206;SDS011;593;53.184;8.216;2023-03-01T10:50:49;7.82;;;6.85;;
1206;SDS011;593;53.184;8.216;2023-03-01T10:53:28;8.85;;;7.03;;
1206;SDS011;593;53.184;8.216;2023-03-01T10:58:40;8.85;;;7.28;;
1206;SDS011;593;53.184;8.216;2023-03-01T11:03:55;9.30;;;6.07;;
1206;SDS011;593;53.184;8.216;2023-03-01T11:06:30;5.28;;;4.78;;
1206;SDS011;593;53.184;8.216;2023-03-01T11:08:56;8.27;;;6.00;;
1206;SDS011;593;53.184;8.216;2023-03-01T11:11:31;11.10;;;6.97;;
1206;SDS011;593;53.184;8.216;2023-03-01T11:14:03;11.70;;;6.25;;
1206;SDS011;593;53.184;8.216;2023-03-01T11:16:36;9.77;;;6.00;;
1206;SDS011;593;53.184;8.216;2023-03-01T11:19:13;11.10;;;7.50;;
1206;SDS011;593;53.184;8.216;2023-03-01T11:24:18;11.75;;;7.18;;
1206;SDS011;593;53.184;8.216;2023-03-01T11:26:46;11.57;;;8.55;;
1206;SDS011;593;53.184;8.216;2023-03-01T11:31:57;12.50;;;7.88;;
1206;SDS011;593;53.184;8.216;2023-03-01T11:37:22;12.25;;;8.75;;
1206;SDS011;593;53.184;8.216;2023-03-01T11:40:05;12.50;;;8.27;;
1206;SDS011;593;53.184;8.216;2023-03-01T11:45:31;13.52;;;8.90;;
1206;SDS011;593;53.184;8.216;2023-03-01T11:48:13;11.35;;;7.70;;
1206;SDS011;593;53.184;8.216;2023-03-01T11:50:52;12.10;;;8.73;;
1206;SDS011;593;53.184;8.216;2023-03-01T11:55:59;11.73;;;9.02;;
1206;SDS011;593;53.184;8.216;2023-03-01T11:58:53;17.38;;;10.15;;
1206;SDS011;593;53.184;8.216;2023-03-01T12:01:30;11.95;;;8.80;;
1206;SDS011;593;53.184;8.216;2023-03-01T12:07:07;18.52;;;11.50;;
1206;SDS011;593;53.184;8.216;2023-03-01T12:09:53;13.77;;;10.40;;
1206;SDS011;593;53.184;8.216;2023-03-01T12:12:43;14.45;;;10.38;;
1206;SDS011;593;53.184;8.216;2023-03-01T12:16:27;16.13;;;10.73;;
1206;SDS011;593;53.184;8.216;2023-03-01T12:25:58;13.85;;;9.90;;
1206;SDS011;593;53.184;8.216;2023-03-01T12:28:49;16.50;;;10.50;;
1206;SDS011;593;53.184;8.216;2023-03-01T12:31:44;15.93;;;9.88;;
1206;SDS011;593;53.184;8.216;2023-03-01T12:42:24;12.82;;;9.75;;
1206;SDS011;593;53.184;8.216;2023-03-01T12:48:14;16.75;;;10.18;;
1206;SDS011;593;53.184;8.216;2023-03-01T12:50:42;14.90;;;10.32;;
1206;SDS011;593;53.184;8.216;2023-03-01T12:53:25;12.85;;;8.63;;
1206;SDS011;593;53.184;8.216;2023-03-01T12:55:58;13.27;;;9.75;;
1206;SDS011;593;53.184;8.216;2023-03-01T12:58:31;14.43;;;10.02;;
1206;SDS011;593;53.184;8.216;2023-03-01T13:01:05;13.55;;;8.95;;
1206;SDS011;593;53.184;8.216;2023-03-01T13:09:11;14.93;;;11.65;;
1206;SDS011;593;53.184;8.216;2023-03-01T13:11:44;15.63;;;10.93;;
1206;SDS011;593;53.184;8.216;2023-03-01T13:16:48;13.60;;;10.35;;
1206;SDS011;593;53.184;8.216;2023-03-01T13:19:29;14.20;;;10.25;;
1206;SDS011;593;53.184;8.216;2023-03-01T13:21:57;14.07;;;10.63;;
1206;SDS011;593;53.184;8.216;2023-03-01T13:29:52;17.67;;;11.10;;
1206;SDS011;593;53.184;8.216;2023-03-01T13:32:25;13.85;;;9.75;;
1206;SDS011;593;53.184;8.216;2023-03-01T13:37:41;12.60;;;9.73;;
1206;SDS011;593;53.184;8.216;2023-03-01T13:42:42;18.13;;;9.80;;
1206;SDS011;593;53.184;8.216;2023-03-01T13:45:20;10.18;;;8.90;;
1206;SDS011;593;53.184;8.216;2023-03-01T13:47:52;13.23;;;9.35;;
1206;SDS011;593;53.184;8.216;2023-03-01T13:50:24;14.60;;;10.70;;
1206;SDS011;593;53.184;8.216;2023-03-01T13:52:53;11.75;;;9.75;;
1206;SDS011;593;53.184;8.216;2023-03-01T13:55:32;10.40;;;8.85;;
1206;SDS011;593;53.184;8.216;2023-03-01T13:58:04;14.05;;;9.55;;
1206;SDS011;593;53.184;8.216;2023-03-01T14:00:41;12.98;;;8.65;;
1206;SDS011;593;53.184;8.216;2023-03-01T14:03:11;10.90;;;9.10;;
1206;SDS011;593;53.184;8.216;2023-03-01T14:05:42;13.82;;;9.52;;
1206;SDS011;593;53.184;8.216;2023-03-01T14:08:22;13.32;;;10.32;;
1206;SDS011;593;53.184;8.216;2023-03-01T14:13:27;13.95;;;9.60;;
1206;SDS011;593;53.184;8.216;2023-03-01T14:19:05;11.30;;;9.65;;
1206;SDS011;593;53.184;8.216;2023-03-01T14:22:06;16.90;;;11.50;;
1206;SDS011;593;53.184;8.216;2023-03-01T14:25:24;19.50;;;12.55;;
1206;SDS011;593;53.184;8.216;2023-03-01T14:27:41;18.33;;;11.85;;
1206;SDS011;593;53.184;8.216;2023-03-01T14:33:15;16.75;;;10.70;;
1206;SDS011;593;53.184;8.216;2023-03-01T14:35:51;16.95;;;12.15;;
1206;SDS011;593;53.184;8.216;2023-03-01T14:38:23;14.57;;;10.68;;
1206;SDS011;593;53.184;8.216;2023-03-01T14:40:56;15.88;;;12.80;;
1206;SDS011;593;53.184;8.216;2023-03-01T14:43:26;15.88;;;11.68;;
1206;SDS011;593;53.184;8.216;2023-03-01T14:45:53;18.52;;;12.98;;
1206;SDS011;593;53.184;8.216;2023-03-01T14:48:19;15.50;;;11.03;;
1206;SDS011;593;53.184;8.216;2023-03-01T14:50:45;14.00;;;11.50;;
1206;SDS011;593;53.184;8.216;2023-03-01T14:53:15;16.27;;;11.60;;
1206;SDS011;593;53.184;8.216;2023-03-01T14:55:45;15.73;;;12.38;;
1206;SDS011;593;53.184;8.216;2023-03-01T14:58:18;19.42;;;12.25;;
1206;SDS011;593;53.184;8.216;2023-03-01T15:00:55;17.10;;;12.52;;
1206;SDS011;593;53.184;8.216;2023-03-01T15:03:31;16.63;;;12.20;;
1206;SDS011;593;53.184;8.216;2023-03-01T15:06:00;19.02;;;13.00;;
1206;SDS011;593;53.184;8.216;2023-03-01T15:08:27;15.73;;;12.10;;
1206;SDS011;593;53.184;8.216;2023-03-01T15:11:05;18.20;;;12.52;;
1206;SDS011;593;53.184;8.216;2023-03-01T15:13:51;16.75;;;11.18;;
1206;SDS011;593;53.184;8.216;2023-03-01T15:16:24;20.47;;;13.67;;
1206;SDS011;593;53.184;8.216;2023-03-01T15:18:56;18.02;;;12.13;;
1206;SDS011;593;53.184;8.216;2023-03-01T15:21:26;18.25;;;13.68;;
1206;SDS011;593;53.184;8.216;2023-03-01T15:23:55;18.73;;;13.13;;
1206;SDS011;593;53.184;8.216;2023-03-01T15:26:27;18.80;;;13.90;;
1206;SDS011;593;53.184;8.216;2023-03-01T15:28:55;14.75;;;12.60;;
1206;SDS011;593;53.184;8.216;2023-03-01T15:31:32;18.95;;;12.70;;
1206;SDS011;593;53.184;8.216;2023-03-01T15:36:48;19.15;;;13.82;;
1206;SDS011;593;53.184;8.216;2023-03-01T15:39:30;21.38;;;16.15;;
1206;SDS011;593;53.184;8.216;2023-03-01T15:42:04;20.13;;;13.95;;
1206;SDS011;593;53.184;8.216;2023-03-01T15:44:33;16.67;;;13.77;;
1206;SDS011;593;53.184;8.216;2023-03-01T15:47:00;22.05;;;14.35;;
1206;SDS011;593;53.184;8.216;2023-03-01T15:49:37;18.35;;;13.60;;
1206;SDS011;593;53.184;8.216;2023-03-01T15:52:06;18.70;;;12.88;;
1206;SDS011;593;53.184;8.216;2023-03-01T15:54:38;17.95;;;13.00;;
1206;SDS011;593;53.184;8.216;2023-03-01T15:57:08;17.70;;;12.57;;
1206;SDS011;593;53.184;8.216;2023-03-01T15:59:38;20.75;;;15.50;;
1206;SDS011;593;53.184;8.216;2023-03-01T16:02:08;22.17;;;14.53;;
1206;SDS011;593;53.184;8.216;2023-03-01T16:04:34;19.38;;;13.82;;
1206;SDS011;593;53.184;8.216;2023-03-01T16:07:00;20.13;;;14.43;;
1206;SDS011;593;53.184;8.216;2023-03-01T16:09:26;24.23;;;16.30;;
1206;SDS011;593;53.184;8.216;2023-03-01T16:11:52;22.63;;;17.00;;
1206;SDS011;593;53.184;8.216;2023-03-01T16:14:18;26.98;;;17.02;;
1206;SDS011;593;53.184;8.216;2023-03-01T16:16:45;22.70;;;15.80;;
1206;SDS011;593;53.184;8.216;2023-03-01T16:19:11;20.83;;;15.13;;
1206;SDS011;593;53.184;8.216;2023-03-01T16:21:37;20.40;;;14.32;;
1206;SDS011;593;53.184;8.216;2023-03-01T16:24:03;17.00;;;12.77;;
1206;SDS011;593;53.184;8.216;2023-03-01T16:26:29;20.45;;;13.82;;
1206;SDS011;593;53.184;8.216;2023-03-01T16:28:55;16.00;;;13.20;;
1206;SDS011;593;53.184;8.216;2023-03-01T16:31:21;15.32;;;11.85;;
1206;SDS011;593;53.184;8.216;2023-03-01T16:33:47;21.00;;;14.20;;
1206;SDS011;593;53.184;8.216;2023-03-01T16:36:15;16.50;;;13.38;;
1206;SDS011;593;53.184;8.216;2023-03-01T16:38:41;21.50;;;13.43;;
1206;SDS011;593;53.184;8.216;2023-03-01T16:41:11;18.70;;;14.47;;
1206;SDS011;593;53.184;8.216;2023-03-01T16:43:38;19.88;;;13.38;;
1206;SDS011;593;53.184;8.216;2023-03-01T16:46:11;16.75;;;13.60;;
1206;SDS011;593;53.184;8.216;2023-03-01T16:48:41;18.10;;;12.52;;
1206;SDS011;593;53.184;8.216;2023-03-01T16:51:07;20.30;;;13.07;;